sensor_id;sensor_type;location;lat;lon;timestamp;temperature;humidity
13521;DHT22;6832;51.186;3.236;2022-11-14T00:02:46;8.50;77.40
13521;DHT22;6832;51.186;3.236;2022-11-14T00:05:20;8.50;77.70
13521;DHT22;6832;51.186;3.236;2022-11-14T00:07:50;8.50;77.50
13521;DHT22;6832;51.186;3.236;2022-11-14T00:10:19;8.50;77.50
13521;DHT22;6832;51.186;3.236;2022-11-14T00:13:01;8.50;77.60
13521;DHT22;6832;51.186;3.236;2022-11-14T00:15:37;8.40;77.00
13521;DHT22;6832;51.186;3.236;2022-11-14T00:18:08;8.40;77.10
13521;DHT22;6832;51.186;3.236;2022-11-14T00:20:35;8.40;76.60
13521;DHT22;6832;51.186;3.236;2022-11-14T00:23:03;8.40;76.70
13521;DHT22;6832;51.186;3.236;2022-11-14T00:25:31;8.40;76.60
13521;DHT22;6832;51.186;3.236;2022-11-14T00:28:01;8.30;76.60
13521;DHT22;6832;51.186;3.236;2022-11-14T00:30:29;8.30;76.80
13521;DHT22;6832;51.186;3.236;2022-11-14T00:33:02;8.30;76.50
13521;DHT22;6832;51.186;3.236;2022-11-14T00:35:39;8.30;76.50
13521;DHT22;6832;51.186;3.236;2022-11-14T00:38:17;8.30;76.60
13521;DHT22;6832;51.186;3.236;2022-11-14T00:40:49;8.30;76.60
13521;DHT22;6832;51.186;3.236;2022-11-14T00:43:20;8.20;76.50
13521;DHT22;6832;51.186;3.236;2022-11-14T00:45:48;8.20;76.90
13521;DHT22;6832;51.186;3.236;2022-11-14T00:48:16;8.20;76.90
13521;DHT22;6832;51.186;3.236;2022-11-14T00:50:54;8.20;76.90
13521;DHT22;6832;51.186;3.236;2022-11-14T00:53:24;8.20;77.00
13521;DHT22;6832;51.186;3.236;2022-11-14T00:55:52;8.10;76.70
13521;DHT22;6832;51.186;3.236;2022-11-14T00:58:19;8.10;76.20
13521;DHT22;6832;51.186;3.236;2022-11-14T01:00:49;8.10;76.20
13521;DHT22;6832;51.186;3.236;2022-11-14T01:03:20;8.10;76.30
13521;DHT22;6832;51.186;3.236;2022-11-14T01:05:53;8.10;76.10
13521;DHT22;6832;51.186;3.236;2022-11-14T01:08:23;8.10;76.30
13521;DHT22;6832;51.186;3.236;2022-11-14T01:10:52;8.00;76.10
13521;DHT22;6832;51.186;3.236;2022-11-14T01:13:22;8.00;76.10
13521;DHT22;6832;51.186;3.236;2022-11-14T01:15:51;8.00;76.40
13521;DHT22;6832;51.186;3.236;2022-11-14T01:18:25;7.90;76.70
13521;DHT22;6832;51.186;3.236;2022-11-14T01:21:04;7.90;76.80
13521;DHT22;6832;51.186;3.236;2022-11-14T01:23:32;7.90;77.00
13521;DHT22;6832;51.186;3.236;2022-11-14T01:26:01;7.80;77.40
13521;DHT22;6832;51.186;3.236;2022-11-14T01:28:38;7.80;77.90
13521;DHT22;6832;51.186;3.236;2022-11-14T01:31:23;7.80;78.20
13521;DHT22;6832;51.186;3.236;2022-11-14T01:33:53;7.80;78.30
13521;DHT22;6832;51.186;3.236;2022-11-14T01:36:23;7.80;78.10
13521;DHT22;6832;51.186;3.236;2022-11-14T01:38:54;7.80;77.80
13521;DHT22;6832;51.186;3.236;2022-11-14T01:41:29;7.70;77.60
13521;DHT22;6832;51.186;3.236;2022-11-14T01:43:59;7.70;77.60
13521;DHT22;6832;51.186;3.236;2022-11-14T01:46:35;7.70;77.60
13521;DHT22;6832;51.186;3.236;2022-11-14T01:49:16;7.70;77.80
13521;DHT22;6832;51.186;3.236;2022-11-14T01:51:56;7.70;77.80
13521;DHT22;6832;51.186;3.236;2022-11-14T01:54:41;7.70;77.80
13521;DHT22;6832;51.186;3.236;2022-11-14T01:57:21;7.60;78.00
13521;DHT22;6832;51.186;3.236;2022-11-14T02:00:00;7.60;78.40
13521;DHT22;6832;51.186;3.236;2022-11-14T02:02:40;7.60;78.50
13521;DHT22;6832;51.186;3.236;2022-11-14T02:05:15;7.60;78.80
13521;DHT22;6832;51.186;3.236;2022-11-14T02:08:04;7.60;79.00
13521;DHT22;6832;51.186;3.236;2022-11-14T02:10:36;7.60;79.60
13521;DHT22;6832;51.186;3.236;2022-11-14T02:13:06;7.60;79.60
13521;DHT22;6832;51.186;3.236;2022-11-14T02:15:42;7.60;79.90
13521;DHT22;6832;51.186;3.236;2022-11-14T02:18:20;7.50;79.70
13521;DHT22;6832;51.186;3.236;2022-11-14T02:21:05;7.50;80.00
13521;DHT22;6832;51.186;3.236;2022-11-14T02:23:51;7.50;80.10
13521;DHT22;6832;51.186;3.236;2022-11-14T02:26:22;7.60;79.70
13521;DHT22;6832;51.186;3.236;2022-11-14T02:29:16;7.50;79.60
13521;DHT22;6832;51.186;3.236;2022-11-14T02:31:46;7.50;79.60
13521;DHT22;6832;51.186;3.236;2022-11-14T02:34:16;7.50;79.00
13521;DHT22;6832;51.186;3.236;2022-11-14T02:36:52;7.50;78.80
13521;DHT22;6832;51.186;3.236;2022-11-14T02:39:23;7.40;79.00
13521;DHT22;6832;51.186;3.236;2022-11-14T02:41:58;7.50;79.50
13521;DHT22;6832;51.186;3.236;2022-11-14T02:44:26;7.40;79.60
13521;DHT22;6832;51.186;3.236;2022-11-14T02:46:55;7.40;79.60
13521;DHT22;6832;51.186;3.236;2022-11-14T02:49:26;7.40;79.80
13521;DHT22;6832;51.186;3.236;2022-11-14T02:51:59;7.40;79.90
13521;DHT22;6832;51.186;3.236;2022-11-14T02:54:28;7.40;79.70
13521;DHT22;6832;51.186;3.236;2022-11-14T02:56:55;7.40;79.60
13521;DHT22;6832;51.186;3.236;2022-11-14T02:59:29;7.40;79.10
13521;DHT22;6832;51.186;3.236;2022-11-14T03:02:01;7.40;79.00
13521;DHT22;6832;51.186;3.236;2022-11-14T03:04:28;7.40;78.70
13521;DHT22;6832;51.186;3.236;2022-11-14T03:06:56;7.30;78.40
13521;DHT22;6832;51.186;3.236;2022-11-14T03:09:27;7.30;78.30
13521;DHT22;6832;51.186;3.236;2022-11-14T03:11:54;7.30;78.40
13521;DHT22;6832;51.186;3.236;2022-11-14T03:14:30;7.30;78.10
13521;DHT22;6832;51.186;3.236;2022-11-14T03:17:01;7.20;78.40
13521;DHT22;6832;51.186;3.236;2022-11-14T03:19:29;7.20;78.30
13521;DHT22;6832;51.186;3.236;2022-11-14T03:22:07;7.20;78.40
13521;DHT22;6832;51.186;3.236;2022-11-14T03:24:38;7.10;78.30
13521;DHT22;6832;51.186;3.236;2022-11-14T03:27:09;7.10;78.40
13521;DHT22;6832;51.186;3.236;2022-11-14T03:29:58;7.10;78.90
13521;DHT22;6832;51.186;3.236;2022-11-14T03:32:27;7.10;79.10
13521;DHT22;6832;51.186;3.236;2022-11-14T03:34:55;7.10;79.00
13521;DHT22;6832;51.186;3.236;2022-11-14T03:37:26;7.10;79.10
13521;DHT22;6832;51.186;3.236;2022-11-14T03:39:57;7.00;79.30
13521;DHT22;6832;51.186;3.236;2022-11-14T03:42:24;7.00;79.30
13521;DHT22;6832;51.186;3.236;2022-11-14T03:44:52;7.00;79.30
13521;DHT22;6832;51.186;3.236;2022-11-14T03:47:20;7.00;79.40
13521;DHT22;6832;51.186;3.236;2022-11-14T03:49:57;7.00;79.30
13521;DHT22;6832;51.186;3.236;2022-11-14T03:52:27;7.00;79.40
13521;DHT22;6832;51.186;3.236;2022-11-14T03:54:56;7.00;79.20
13521;DHT22;6832;51.186;3.236;2022-11-14T03:57:26;7.00;79.20
13521;DHT22;6832;51.186;3.236;2022-11-14T03:59:57;7.00;79.20
13521;DHT22;6832;51.186;3.236;2022-11-14T04:02:27;6.90;79.20
13521;DHT22;6832;51.186;3.236;2022-11-14T04:04:55;6.90;79.00
13521;DHT22;6832;51.186;3.236;2022-11-14T04:07:38;6.90;79.10
13521;DHT22;6832;51.186;3.236;2022-11-14T04:10:10;7.00;79.50
13521;DHT22;6832;51.186;3.236;2022-11-14T04:12:46;6.90;79.30
13521;DHT22;6832;51.186;3.236;2022-11-14T04:15:38;6.90;79.50
13521;DHT22;6832;51.186;3.236;2022-11-14T04:18:11;6.90;79.80
13521;DHT22;6832;51.186;3.236;2022-11-14T04:20:44;6.90;79.80
13521;DHT22;6832;51.186;3.236;2022-11-14T04:23:33;6.90;79.60
13521;DHT22;6832;51.186;3.236;2022-11-14T04:26:11;6.90;79.70
13521;DHT22;6832;51.186;3.236;2022-11-14T04:28:45;6.90;79.40
13521;DHT22;6832;51.186;3.236;2022-11-14T04:31:14;6.90;79.60
13521;DHT22;6832;51.186;3.236;2022-11-14T04:33:53;6.90;79.60
13521;DHT22;6832;51.186;3.236;2022-11-14T04:36:22;6.80;79.40
13521;DHT22;6832;51.186;3.236;2022-11-14T04:38:58;6.80;79.30
13521;DHT22;6832;51.186;3.236;2022-11-14T04:41:30;6.80;79.40
13521;DHT22;6832;51.186;3.236;2022-11-14T04:44:01;6.80;79.10
13521;DHT22;6832;51.186;3.236;2022-11-14T04:46:31;6.70;78.70
13521;DHT22;6832;51.186;3.236;2022-11-14T04:49:13;6.70;78.80
13521;DHT22;6832;51.186;3.236;2022-11-14T04:51:55;6.70;79.00
13521;DHT22;6832;51.186;3.236;2022-11-14T04:54:30;6.70;79.10
13521;DHT22;6832;51.186;3.236;2022-11-14T04:57:09;6.70;79.30
13521;DHT22;6832;51.186;3.236;2022-11-14T04:59:40;6.70;79.70
13521;DHT22;6832;51.186;3.236;2022-11-14T05:02:10;6.60;79.80
13521;DHT22;6832;51.186;3.236;2022-11-14T05:04:38;6.60;80.20
13521;DHT22;6832;51.186;3.236;2022-11-14T05:07:06;6.60;80.40
13521;DHT22;6832;51.186;3.236;2022-11-14T05:09:38;6.60;80.60
13521;DHT22;6832;51.186;3.236;2022-11-14T05:12:14;6.60;81.00
13521;DHT22;6832;51.186;3.236;2022-11-14T05:14:51;6.60;81.60
13521;DHT22;6832;51.186;3.236;2022-11-14T05:17:27;6.60;81.90
13521;DHT22;6832;51.186;3.236;2022-11-14T05:19:59;6.60;81.80
13521;DHT22;6832;51.186;3.236;2022-11-14T05:22:29;6.60;81.90
13521;DHT22;6832;51.186;3.236;2022-11-14T05:25:09;6.60;81.80
13521;DHT22;6832;51.186;3.236;2022-11-14T05:27:38;6.70;82.10
13521;DHT22;6832;51.186;3.236;2022-11-14T05:30:16;6.70;81.80
13521;DHT22;6832;51.186;3.236;2022-11-14T05:32:50;6.70;82.00
13521;DHT22;6832;51.186;3.236;2022-11-14T05:35:21;6.70;81.70
13521;DHT22;6832;51.186;3.236;2022-11-14T05:37:56;6.70;81.10
13521;DHT22;6832;51.186;3.236;2022-11-14T05:40:31;6.70;80.70
13521;DHT22;6832;51.186;3.236;2022-11-14T05:43:05;6.70;80.40
13521;DHT22;6832;51.186;3.236;2022-11-14T05:45:46;6.70;80.10
13521;DHT22;6832;51.186;3.236;2022-11-14T05:48:16;6.70;79.80
13521;DHT22;6832;51.186;3.236;2022-11-14T05:50:47;6.60;79.20
13521;DHT22;6832;51.186;3.236;2022-11-14T05:53:17;6.60;79.20
13521;DHT22;6832;51.186;3.236;2022-11-14T05:55:49;6.50;79.10
13521;DHT22;6832;51.186;3.236;2022-11-14T05:58:18;6.50;79.20
13521;DHT22;6832;51.186;3.236;2022-11-14T06:00:46;6.50;79.10
13521;DHT22;6832;51.186;3.236;2022-11-14T06:03:16;6.40;79.00
13521;DHT22;6832;51.186;3.236;2022-11-14T06:05:46;6.40;79.00
13521;DHT22;6832;51.186;3.236;2022-11-14T06:08:14;6.40;79.20
13521;DHT22;6832;51.186;3.236;2022-11-14T06:10:41;6.30;78.90
13521;DHT22;6832;51.186;3.236;2022-11-14T06:13:13;6.30;78.90
13521;DHT22;6832;51.186;3.236;2022-11-14T06:15:41;6.30;79.30
13521;DHT22;6832;51.186;3.236;2022-11-14T06:18:09;6.30;79.30
13521;DHT22;6832;51.186;3.236;2022-11-14T06:20:37;6.20;79.50
13521;DHT22;6832;51.186;3.236;2022-11-14T06:23:06;6.20;79.60
13521;DHT22;6832;51.186;3.236;2022-11-14T06:25:34;6.20;79.90
13521;DHT22;6832;51.186;3.236;2022-11-14T06:28:03;6.10;80.00
13521;DHT22;6832;51.186;3.236;2022-11-14T06:30:31;6.20;80.20
13521;DHT22;6832;51.186;3.236;2022-11-14T06:33:02;6.10;80.20
13521;DHT22;6832;51.186;3.236;2022-11-14T06:35:29;6.10;80.30
13521;DHT22;6832;51.186;3.236;2022-11-14T06:38:00;6.10;80.20
13521;DHT22;6832;51.186;3.236;2022-11-14T06:40:27;6.10;80.20
13521;DHT22;6832;51.186;3.236;2022-11-14T06:42:57;6.10;80.30
13521;DHT22;6832;51.186;3.236;2022-11-14T06:45:31;6.10;80.30
13521;DHT22;6832;51.186;3.236;2022-11-14T06:47:59;6.10;80.80
13521;DHT22;6832;51.186;3.236;2022-11-14T06:50:27;6.00;81.30
13521;DHT22;6832;51.186;3.236;2022-11-14T06:52:57;6.10;80.60
13521;DHT22;6832;51.186;3.236;2022-11-14T06:55:25;6.10;81.00
13521;DHT22;6832;51.186;3.236;2022-11-14T06:57:56;6.00;81.00
13521;DHT22;6832;51.186;3.236;2022-11-14T07:00:26;6.10;81.30
13521;DHT22;6832;51.186;3.236;2022-11-14T07:02:55;6.00;81.10
13521;DHT22;6832;51.186;3.236;2022-11-14T07:05:23;6.10;81.60
13521;DHT22;6832;51.186;3.236;2022-11-14T07:07:51;6.10;81.70
13521;DHT22;6832;51.186;3.236;2022-11-14T07:10:18;6.00;81.60
13521;DHT22;6832;51.186;3.236;2022-11-14T07:12:48;6.00;81.70
13521;DHT22;6832;51.186;3.236;2022-11-14T07:15:15;6.00;82.20
13521;DHT22;6832;51.186;3.236;2022-11-14T07:17:42;6.00;82.00
13521;DHT22;6832;51.186;3.236;2022-11-14T07:20:15;6.10;82.10
13521;DHT22;6832;51.186;3.236;2022-11-14T07:22:44;6.00;82.50
13521;DHT22;6832;51.186;3.236;2022-11-14T07:25:12;6.00;82.60
13521;DHT22;6832;51.186;3.236;2022-11-14T07:27:42;6.00;82.60
13521;DHT22;6832;51.186;3.236;2022-11-14T07:30:12;6.10;83.10
13521;DHT22;6832;51.186;3.236;2022-11-14T07:32:40;6.10;83.30
13521;DHT22;6832;51.186;3.236;2022-11-14T07:35:09;6.10;83.60
13521;DHT22;6832;51.186;3.236;2022-11-14T07:37:40;6.10;84.20
13521;DHT22;6832;51.186;3.236;2022-11-14T07:40:09;6.10;84.80
13521;DHT22;6832;51.186;3.236;2022-11-14T07:42:40;6.10;84.90
13521;DHT22;6832;51.186;3.236;2022-11-14T07:45:11;6.20;85.00
13521;DHT22;6832;51.186;3.236;2022-11-14T07:47:40;6.10;85.70
13521;DHT22;6832;51.186;3.236;2022-11-14T07:50:08;6.20;86.00
13521;DHT22;6832;51.186;3.236;2022-11-14T07:52:37;6.20;86.30
13521;DHT22;6832;51.186;3.236;2022-11-14T07:55:05;6.20;86.60
13521;DHT22;6832;51.186;3.236;2022-11-14T07:57:33;6.30;86.70
13521;DHT22;6832;51.186;3.236;2022-11-14T08:00:03;6.30;87.10
13521;DHT22;6832;51.186;3.236;2022-11-14T08:02:30;6.30;87.10
13521;DHT22;6832;51.186;3.236;2022-11-14T08:04:58;6.40;87.40
13521;DHT22;6832;51.186;3.236;2022-11-14T08:07:26;6.40;87.70
13521;DHT22;6832;51.186;3.236;2022-11-14T08:09:55;6.40;88.00
13521;DHT22;6832;51.186;3.236;2022-11-14T08:12:22;6.50;88.50
13521;DHT22;6832;51.186;3.236;2022-11-14T08:14:49;6.50;88.20
13521;DHT22;6832;51.186;3.236;2022-11-14T08:17:16;6.60;88.10
13521;DHT22;6832;51.186;3.236;2022-11-14T08:19:44;6.60;88.00
13521;DHT22;6832;51.186;3.236;2022-11-14T08:22:13;6.60;88.00
13521;DHT22;6832;51.186;3.236;2022-11-14T08:24:40;6.70;88.30
13521;DHT22;6832;51.186;3.236;2022-11-14T08:27:14;6.70;87.80
13521;DHT22;6832;51.186;3.236;2022-11-14T08:29:45;6.70;88.70
13521;DHT22;6832;51.186;3.236;2022-11-14T08:32:12;6.80;88.60
13521;DHT22;6832;51.186;3.236;2022-11-14T08:34:41;6.80;89.00
13521;DHT22;6832;51.186;3.236;2022-11-14T08:37:12;6.90;89.70
13521;DHT22;6832;51.186;3.236;2022-11-14T08:39:41;6.90;90.10
13521;DHT22;6832;51.186;3.236;2022-11-14T08:42:09;7.00;90.20
13521;DHT22;6832;51.186;3.236;2022-11-14T08:44:42;7.00;90.30
13521;DHT22;6832;51.186;3.236;2022-11-14T08:47:10;7.10;90.60
13521;DHT22;6832;51.186;3.236;2022-11-14T08:49:42;7.10;90.70
13521;DHT22;6832;51.186;3.236;2022-11-14T08:52:18;7.20;90.90
13521;DHT22;6832;51.186;3.236;2022-11-14T08:54:46;7.30;90.90
13521;DHT22;6832;51.186;3.236;2022-11-14T08:57:18;7.30;90.50
13521;DHT22;6832;51.186;3.236;2022-11-14T08:59:49;7.40;90.60
13521;DHT22;6832;51.186;3.236;2022-11-14T09:02:19;7.50;91.00
13521;DHT22;6832;51.186;3.236;2022-11-14T09:04:49;7.60;91.00
13521;DHT22;6832;51.186;3.236;2022-11-14T09:07:16;7.60;91.00
13521;DHT22;6832;51.186;3.236;2022-11-14T09:09:46;7.70;90.90
13521;DHT22;6832;51.186;3.236;2022-11-14T09:12:16;7.70;91.20
13521;DHT22;6832;51.186;3.236;2022-11-14T09:14:45;7.80;91.20
13521;DHT22;6832;51.186;3.236;2022-11-14T09:17:14;7.80;91.20
13521;DHT22;6832;51.186;3.236;2022-11-14T09:23:15;7.90;91.70
13521;DHT22;6832;51.186;3.236;2022-11-14T09:28:25;8.10;91.40
13521;DHT22;6832;51.186;3.236;2022-11-14T09:38:42;8.40;91.40
13521;DHT22;6832;51.186;3.236;2022-11-14T09:41:23;8.50;91.80
13521;DHT22;6832;51.186;3.236;2022-11-14T09:44:15;8.50;92.10
13521;DHT22;6832;51.186;3.236;2022-11-14T09:46:47;8.60;92.00
13521;DHT22;6832;51.186;3.236;2022-11-14T09:49:26;8.70;91.90
13521;DHT22;6832;51.186;3.236;2022-11-14T09:52:02;8.70;92.10
13521;DHT22;6832;51.186;3.236;2022-11-14T09:54:51;8.80;92.20
13521;DHT22;6832;51.186;3.236;2022-11-14T09:57:43;8.90;92.00
13521;DHT22;6832;51.186;3.236;2022-11-14T10:00:23;8.90;91.50
13521;DHT22;6832;51.186;3.236;2022-11-14T10:03:06;9.00;91.10
13521;DHT22;6832;51.186;3.236;2022-11-14T10:05:49;9.00;91.70
13521;DHT22;6832;51.186;3.236;2022-11-14T10:08:34;9.10;91.10
13521;DHT22;6832;51.186;3.236;2022-11-14T10:11:12;9.10;90.90
13521;DHT22;6832;51.186;3.236;2022-11-14T10:13:53;9.20;90.70
13521;DHT22;6832;51.186;3.236;2022-11-14T10:16:31;9.20;90.40
13521;DHT22;6832;51.186;3.236;2022-11-14T10:19:12;9.20;90.40
13521;DHT22;6832;51.186;3.236;2022-11-14T10:21:59;9.20;90.40
13521;DHT22;6832;51.186;3.236;2022-11-14T10:28:07;9.20;90.20
13521;DHT22;6832;51.186;3.236;2022-11-14T10:30:42;9.20;90.00
13521;DHT22;6832;51.186;3.236;2022-11-14T10:33:26;9.20;89.70
13521;DHT22;6832;51.186;3.236;2022-11-14T10:36:06;9.20;89.60
13521;DHT22;6832;51.186;3.236;2022-11-14T10:38:40;9.20;89.70
13521;DHT22;6832;51.186;3.236;2022-11-14T10:41:14;9.10;89.90
13521;DHT22;6832;51.186;3.236;2022-11-14T10:43:46;9.10;90.10
13521;DHT22;6832;51.186;3.236;2022-11-14T10:46:16;9.20;90.10
13521;DHT22;6832;51.186;3.236;2022-11-14T10:48:47;9.10;89.60
13521;DHT22;6832;51.186;3.236;2022-11-14T10:51:23;9.10;89.50
13521;DHT22;6832;51.186;3.236;2022-11-14T10:54:02;9.20;89.80
13521;DHT22;6832;51.186;3.236;2022-11-14T10:56:32;9.20;90.10
13521;DHT22;6832;51.186;3.236;2022-11-14T10:59:01;9.10;89.40
13521;DHT22;6832;51.186;3.236;2022-11-14T11:01:37;9.10;89.40
13521;DHT22;6832;51.186;3.236;2022-11-14T11:04:24;9.20;89.50
13521;DHT22;6832;51.186;3.236;2022-11-14T11:06:54;9.10;89.60
13521;DHT22;6832;51.186;3.236;2022-11-14T11:09:26;9.20;88.80
13521;DHT22;6832;51.186;3.236;2022-11-14T11:12:42;9.10;88.70
13521;DHT22;6832;51.186;3.236;2022-11-14T11:15:19;9.10;89.00
13521;DHT22;6832;51.186;3.236;2022-11-14T11:17:58;9.10;89.30
13521;DHT22;6832;51.186;3.236;2022-11-14T11:20:30;9.10;89.20
13521;DHT22;6832;51.186;3.236;2022-11-14T11:23:03;9.10;89.20
13521;DHT22;6832;51.186;3.236;2022-11-14T11:25:32;9.10;88.80
13521;DHT22;6832;51.186;3.236;2022-11-14T11:28:06;9.10;88.90
13521;DHT22;6832;51.186;3.236;2022-11-14T11:30:35;9.10;89.10
13521;DHT22;6832;51.186;3.236;2022-11-14T11:33:22;9.00;89.10
13521;DHT22;6832;51.186;3.236;2022-11-14T11:35:58;9.00;89.80
13521;DHT22;6832;51.186;3.236;2022-11-14T11:38:30;9.00;89.00
13521;DHT22;6832;51.186;3.236;2022-11-14T11:41:14;9.10;88.50
13521;DHT22;6832;51.186;3.236;2022-11-14T11:43:50;9.00;89.20
13521;DHT22;6832;51.186;3.236;2022-11-14T11:46:33;9.00;89.40
13521;DHT22;6832;51.186;3.236;2022-11-14T11:49:15;9.00;89.20
13521;DHT22;6832;51.186;3.236;2022-11-14T11:51:45;9.00;89.30
13521;DHT22;6832;51.186;3.236;2022-11-14T11:54:17;9.00;89.30
13521;DHT22;6832;51.186;3.236;2022-11-14T11:56:47;9.00;89.80
13521;DHT22;6832;51.186;3.236;2022-11-14T11:59:25;9.00;89.80
13521;DHT22;6832;51.186;3.236;2022-11-14T12:01:56;9.00;89.80
13521;DHT22;6832;51.186;3.236;2022-11-14T12:04:25;9.00;89.50
13521;DHT22;6832;51.186;3.236;2022-11-14T12:06:59;9.00;89.70
13521;DHT22;6832;51.186;3.236;2022-11-14T12:09:35;9.00;90.00
13521;DHT22;6832;51.186;3.236;2022-11-14T12:12:10;9.00;89.80
13521;DHT22;6832;51.186;3.236;2022-11-14T12:15:03;9.00;89.70
13521;DHT22;6832;51.186;3.236;2022-11-14T12:20:53;9.00;90.20
13521;DHT22;6832;51.186;3.236;2022-11-14T12:26:35;9.00;90.20
13521;DHT22;6832;51.186;3.236;2022-11-14T12:29:19;9.00;90.20
13521;DHT22;6832;51.186;3.236;2022-11-14T12:31:55;9.00;89.40
13521;DHT22;6832;51.186;3.236;2022-11-14T12:34:28;8.90;89.60
13521;DHT22;6832;51.186;3.236;2022-11-14T12:37:08;8.90;90.00
13521;DHT22;6832;51.186;3.236;2022-11-14T12:39:40;8.90;90.30
13521;DHT22;6832;51.186;3.236;2022-11-14T12:42:12;8.80;90.10
13521;DHT22;6832;51.186;3.236;2022-11-14T12:44:45;8.80;90.20
13521;DHT22;6832;51.186;3.236;2022-11-14T12:47:16;8.80;90.40
13521;DHT22;6832;51.186;3.236;2022-11-14T12:50:02;8.70;90.60
13521;DHT22;6832;51.186;3.236;2022-11-14T12:53:14;8.80;90.90
13521;DHT22;6832;51.186;3.236;2022-11-14T12:59:37;8.80;91.00
13521;DHT22;6832;51.186;3.236;2022-11-14T13:11:38;8.80;91.20
13521;DHT22;6832;51.186;3.236;2022-11-14T13:14:24;8.80;91.30
13521;DHT22;6832;51.186;3.236;2022-11-14T13:17:23;8.80;91.00
13521;DHT22;6832;51.186;3.236;2022-11-14T13:20:36;8.80;91.40
13521;DHT22;6832;51.186;3.236;2022-11-14T13:23:53;8.90;91.60
13521;DHT22;6832;51.186;3.236;2022-11-14T13:26:40;8.90;91.70
13521;DHT22;6832;51.186;3.236;2022-11-14T13:33:01;8.80;91.70
13521;DHT22;6832;51.186;3.236;2022-11-14T13:35:59;8.80;92.20
13521;DHT22;6832;51.186;3.236;2022-11-14T13:38:57;8.90;91.90
13521;DHT22;6832;51.186;3.236;2022-11-14T13:42:01;8.90;92.00
13521;DHT22;6832;51.186;3.236;2022-11-14T13:45:16;8.90;91.80
13521;DHT22;6832;51.186;3.236;2022-11-14T13:48:27;8.90;91.80
13521;DHT22;6832;51.186;3.236;2022-11-14T13:51:03;9.00;91.70
13521;DHT22;6832;51.186;3.236;2022-11-14T13:53:32;9.00;91.30
13521;DHT22;6832;51.186;3.236;2022-11-14T13:56:15;9.00;91.10
13521;DHT22;6832;51.186;3.236;2022-11-14T13:59:10;8.90;91.30
13521;DHT22;6832;51.186;3.236;2022-11-14T14:01:49;9.00;91.70
13521;DHT22;6832;51.186;3.236;2022-11-14T14:04:36;8.90;91.70
13521;DHT22;6832;51.186;3.236;2022-11-14T14:07:17;8.90;91.60
13521;DHT22;6832;51.186;3.236;2022-11-14T14:09:49;8.90;91.70
13521;DHT22;6832;51.186;3.236;2022-11-14T14:12:45;8.90;91.80
13521;DHT22;6832;51.186;3.236;2022-11-14T14:15:26;8.90;91.90
13521;DHT22;6832;51.186;3.236;2022-11-14T14:18:09;8.90;92.00
13521;DHT22;6832;51.186;3.236;2022-11-14T14:20:45;8.90;92.20
13521;DHT22;6832;51.186;3.236;2022-11-14T14:23:26;8.90;92.10
13521;DHT22;6832;51.186;3.236;2022-11-14T14:26:18;9.00;92.20
13521;DHT22;6832;51.186;3.236;2022-11-14T14:29:05;9.00;92.10
13521;DHT22;6832;51.186;3.236;2022-11-14T14:31:42;9.00;92.10
13521;DHT22;6832;51.186;3.236;2022-11-14T14:34:24;9.00;92.10
13521;DHT22;6832;51.186;3.236;2022-11-14T14:36:58;9.00;92.40
13521;DHT22;6832;51.186;3.236;2022-11-14T14:39:30;9.00;91.90
13521;DHT22;6832;51.186;3.236;2022-11-14T14:41:58;9.00;91.90
13521;DHT22;6832;51.186;3.236;2022-11-14T14:44:36;9.00;91.80
13521;DHT22;6832;51.186;3.236;2022-11-14T14:47:26;9.00;92.20
13521;DHT22;6832;51.186;3.236;2022-11-14T14:50:23;9.00;92.70
13521;DHT22;6832;51.186;3.236;2022-11-14T14:52:59;9.00;92.40
13521;DHT22;6832;51.186;3.236;2022-11-14T14:55:52;9.00;92.40
13521;DHT22;6832;51.186;3.236;2022-11-14T14:58:27;9.10;92.50
13521;DHT22;6832;51.186;3.236;2022-11-14T15:00:57;9.00;92.70
13521;DHT22;6832;51.186;3.236;2022-11-14T15:03:40;9.00;92.60
13521;DHT22;6832;51.186;3.236;2022-11-14T15:06:25;9.10;92.90
13521;DHT22;6832;51.186;3.236;2022-11-14T15:08:56;9.10;92.90
13521;DHT22;6832;51.186;3.236;2022-11-14T15:11:23;9.10;92.70
13521;DHT22;6832;51.186;3.236;2022-11-14T15:13:54;9.10;92.70
13521;DHT22;6832;51.186;3.236;2022-11-14T15:16:23;9.20;92.70
13521;DHT22;6832;51.186;3.236;2022-11-14T15:18:55;9.10;92.50
13521;DHT22;6832;51.186;3.236;2022-11-14T15:21:27;9.20;92.50
13521;DHT22;6832;51.186;3.236;2022-11-14T15:24:00;9.10;92.30
13521;DHT22;6832;51.186;3.236;2022-11-14T15:26:37;9.10;92.70
13521;DHT22;6832;51.186;3.236;2022-11-14T15:29:07;9.10;92.50
13521;DHT22;6832;51.186;3.236;2022-11-14T15:31:44;9.10;92.70
13521;DHT22;6832;51.186;3.236;2022-11-14T15:34:32;9.10;93.30
13521;DHT22;6832;51.186;3.236;2022-11-14T15:37:21;9.10;93.10
13521;DHT22;6832;51.186;3.236;2022-11-14T15:40:07;9.10;93.10
13521;DHT22;6832;51.186;3.236;2022-11-14T15:42:38;9.10;92.90
13521;DHT22;6832;51.186;3.236;2022-11-14T15:45:20;9.10;93.00
13521;DHT22;6832;51.186;3.236;2022-11-14T15:47:56;9.10;93.10
13521;DHT22;6832;51.186;3.236;2022-11-14T15:50:28;9.20;93.10
13521;DHT22;6832;51.186;3.236;2022-11-14T15:53:01;9.20;93.00
13521;DHT22;6832;51.186;3.236;2022-11-14T15:55:32;9.20;93.00
13521;DHT22;6832;51.186;3.236;2022-11-14T15:58:02;9.20;92.90
13521;DHT22;6832;51.186;3.236;2022-11-14T16:00:31;9.20;93.00
13521;DHT22;6832;51.186;3.236;2022-11-14T16:03:01;9.20;92.90
13521;DHT22;6832;51.186;3.236;2022-11-14T16:05:36;9.20;92.80
13521;DHT22;6832;51.186;3.236;2022-11-14T16:08:12;9.30;93.10
13521;DHT22;6832;51.186;3.236;2022-11-14T16:10:40;9.30;93.10
13521;DHT22;6832;51.186;3.236;2022-11-14T16:13:09;9.30;93.10
13521;DHT22;6832;51.186;3.236;2022-11-14T16:15:40;9.30;93.10
13521;DHT22;6832;51.186;3.236;2022-11-14T16:18:14;9.30;93.30
13521;DHT22;6832;51.186;3.236;2022-11-14T16:20:49;9.30;93.30
13521;DHT22;6832;51.186;3.236;2022-11-14T16:23:21;9.30;93.40
13521;DHT22;6832;51.186;3.236;2022-11-14T16:25:49;9.30;93.50
13521;DHT22;6832;51.186;3.236;2022-11-14T16:28:22;9.30;93.40
13521;DHT22;6832;51.186;3.236;2022-11-14T16:30:50;9.30;93.70
13521;DHT22;6832;51.186;3.236;2022-11-14T16:33:21;9.40;93.50
13521;DHT22;6832;51.186;3.236;2022-11-14T16:35:54;9.40;93.70
13521;DHT22;6832;51.186;3.236;2022-11-14T16:38:25;9.40;93.80
13521;DHT22;6832;51.186;3.236;2022-11-14T16:40:59;9.40;93.80
13521;DHT22;6832;51.186;3.236;2022-11-14T16:43:28;9.40;93.70
13521;DHT22;6832;51.186;3.236;2022-11-14T16:46:02;9.40;93.80
13521;DHT22;6832;51.186;3.236;2022-11-14T16:48:30;9.50;93.80
13521;DHT22;6832;51.186;3.236;2022-11-14T16:51:04;9.50;93.60
13521;DHT22;6832;51.186;3.236;2022-11-14T16:53:34;9.50;93.80
13521;DHT22;6832;51.186;3.236;2022-11-14T16:56:09;9.50;93.80
13521;DHT22;6832;51.186;3.236;2022-11-14T16:58:36;9.50;93.80
13521;DHT22;6832;51.186;3.236;2022-11-14T17:01:13;9.50;93.50
13521;DHT22;6832;51.186;3.236;2022-11-14T17:03:41;9.50;93.80
13521;DHT22;6832;51.186;3.236;2022-11-14T17:06:11;9.50;93.40
13521;DHT22;6832;51.186;3.236;2022-11-14T17:08:41;9.50;93.70
13521;DHT22;6832;51.186;3.236;2022-11-14T17:11:12;9.50;93.70
13521;DHT22;6832;51.186;3.236;2022-11-14T17:13:43;9.50;93.70
13521;DHT22;6832;51.186;3.236;2022-11-14T17:16:11;9.50;93.70
13521;DHT22;6832;51.186;3.236;2022-11-14T17:18:38;9.50;93.70
13521;DHT22;6832;51.186;3.236;2022-11-14T17:21:07;9.50;93.50
13521;DHT22;6832;51.186;3.236;2022-11-14T17:23:36;9.60;93.70
13521;DHT22;6832;51.186;3.236;2022-11-14T17:26:04;9.50;93.80
13521;DHT22;6832;51.186;3.236;2022-11-14T17:28:33;9.60;93.70
13521;DHT22;6832;51.186;3.236;2022-11-14T17:31:06;9.60;93.80